Airport Weather Around the Area


KLVN - Mpls/Airlake, Lakeville, MN, USA
Distance from station: S 5mi, 8km
Updated: Tue, 19-Sep-2017 11:52am CDT
Partly Cloudy
Partly Cloudy
 Wind from SE
Wind: SE 7 mph , 11 km/h
Temperature: 72°F , 22°C
Dew Point: 64°F , 18°C
Humidity: 78%
Barometer: 29.88 inHg , 1011.9 hPa
Clouds: Partly Cloudy
Visibility: 10 miles , 16 km
Cloud details: Partly Cloudy 1800 ft
Partly Cloudy 5000 ft
2017/09/19 16:52 KLVN 191652Z AUTO 14006KT 10SM SCT018 SCT050 22/18 A2988 RMK AO2
KMSP - MSP International, Minneapolis, MN, USA
Distance from station: N 13mi, 20km
Updated: Tue, 19-Sep-2017 11:53am CDT
Mostly Cloudy
Mostly Cloudy
 Wind from SE
Wind: SE 12 mph , 19 km/h
Temperature: 72°F , 22°C
Dew Point: 64°F , 18°C
Humidity: 78%
Barometer: 29.88 inHg , 1011.9 hPa
Clouds: Mostly Cloudy
Visibility: 10 miles , 16 km
Cloud details: Mostly Cloudy 2000 ft
2017/09/19 16:53 KMSP 191653Z 13010KT 10SM BKN020 22/18 A2988 RMK AO2 SLP117 T02220178
 
KSGS - South St Paul/Fleming Field, So. St. Paul, MN, USA
Distance from station: NE 14mi, 22km
Updated: Tue, 19-Sep-2017 11:53am CDT
Clear
Clear
 Wind from SE
Wind: SE 7 mph , 11 km/h
Temperature: 72°F , 22°C
Dew Point: 63°F , 17°C
Humidity: 73%
Barometer: 29.89 inHg , 1012.2 hPa
Clouds: Clear
Visibility: 10 miles , 16 km
2017/09/19 16:53 KSGS 191653Z AUTO 13006KT 10SM CLR 22/17 A2989 RMK AO2 T02210172
KFCM - Mpls/Flying Cloud, Eden Prairie, MN, USA
Distance from station: NW 15mi, 24km
Updated: Tue, 19-Sep-2017 11:53am CDT
Partly Cloudy
Partly Cloudy
 Wind from SE
Wind: SE 10 mph , 17 km/h
Temperature: 73°F , 23°C
Dew Point: 64°F , 18°C
Humidity: 74%
Barometer: 29.86 inHg , 1011.2 hPa
Clouds: Partly Cloudy
Visibility: 10 miles , 16 km
Cloud details: Partly Cloudy 1500 ft
2017/09/19 16:53 KFCM 191653Z 14009KT 10SM SCT015 23/18 A2986 RMK AO2 SLP111 T02330178
 
KSTP - St. Paul Downtown, St. Paul, MN, USA
Distance from station: NNE 18mi, 29km
Updated: Tue, 19-Sep-2017 11:53am CDT
Partly Cloudy
Partly Cloudy
 Wind from SE
Wind: SE 9 mph , 15 km/h
Temperature: 72°F , 22°C
Dew Point: 64°F , 18°C
Humidity: 78%
Barometer: 29.89 inHg , 1012.2 hPa
Clouds: Partly Cloudy
Visibility: 10 miles , 16 km
Cloud details: Partly Cloudy 2100 ft
2017/09/19 16:53 KSTP 191653Z 13008KT 10SM SCT021 22/18 A2989 RMK AO2 SLP118 T02220178
KSYN - Stanton, Minnesota, USA
Distance from station: SE 18mi, 29km
Updated: Tue, 19-Sep-2017 11:53am CDT
Partly Cloudy
Partly Cloudy
 Wind from SSE
Wind: SSE 8 mph , 13 km/h
Temperature: 75°F , 24°C
Dew Point: 64°F , 18°C
Humidity: 69%
Barometer: 29.88 inHg , 1011.9 hPa
Clouds: Partly Cloudy
Visibility: 10 miles , 16 km
Cloud details: Partly Cloudy 2300 ft
2017/09/19 16:53 KSYN 191653Z AUTO 16007KT 10SM SCT023 24/18 A2988 RMK AO2 T02360176
 
KMIC - Mlps/Crystal, MN, USA
Distance from station: NNW 26mi, 42km
Updated: Tue, 19-Sep-2017 11:53am CDT
Partly Cloudy
Partly Cloudy
 Wind from SSE
Wind: SSE 13 mph , 20 km/h
Temperature: 72°F , 22°C
Dew Point: 61°F , 16°C
Humidity: 69%
Barometer: 29.86 inHg , 1011.2 hPa
Clouds: Partly Cloudy
Visibility: 10 miles , 16 km
Cloud details: Partly Cloudy 2200 ft
2017/09/19 16:53 KMIC 191653Z 15011KT 120V180 10SM SCT022 22/16 A2986 RMK AO2 SLP110 T02220161
KFBL - Faribault Municipal, MN, USA
Distance from station: S 27mi, 43km
Updated: Tue, 19-Sep-2017 11:54am CDT
Overcast
Overcast
 Wind from SE
Wind: SE 15 mph , 24 km/h, Gust: 18 mph , 30 km/h
Temperature: 73°F , 23°C
Dew Point: 64°F , 18°C
Humidity: 74%
Barometer: 29.89 inHg , 1012.2 hPa
Clouds: Overcast
Visibility: 10 miles , 16 km
Cloud details: Overcast 4800 ft
2017/09/19 16:54 KFBL 191654Z AUTO 14013G16KT 10SM OVC048 23/18 A2989 RMK AO2
 
K21D - Lake Elmo, MN, USA
Distance from station: NE 27mi, 44km
Updated: Tue, 19-Sep-2017 11:51am CDT
Mostly Cloudy
Mostly Cloudy
 Wind from ESE
Wind: ESE 8 mph , 13 km/h
Temperature: 70°F , 21°C
Dew Point: 63°F , 17°C
Humidity: 78%
Barometer: 29.91 inHg , 1012.9 hPa
Clouds: Mostly Cloudy
Visibility: 10 miles , 16 km
Cloud details: Mostly Cloudy 1700 ft
2017/09/19 16:51 K21D 191651Z AUTO 11007KT 10SM BKN017 21/17 A2991 RMK AO2
KANE - Anoka Co./Blaine, MN, USA
Distance from station: 0 30mi, 48km
Updated: Tue, 19-Sep-2017 11:50am CDT
Mostly Cloudy
Mostly Cloudy
 Wind from SE
Wind: SE 12 mph , 19 km/h
Temperature: 72°F , 22°C
Dew Point: 64°F , 18°C
Humidity: 78%
Barometer: 29.88 inHg , 1011.9 hPa
Clouds: Mostly Cloudy
Visibility: 10 miles , 16 km
Cloud details: Mostly Cloudy 1800 ft
2017/09/19 16:50 KANE 191650Z 13010KT 10SM BKN018 22/18 A2988
 
KRGK - Red Wing, MN, USA
Distance from station: ESE 37mi, 60km
Updated: Tue, 19-Sep-2017 11:55am CDT
Clear
Clear
 Wind from ESE
Wind: ESE 10 mph , 17 km/h
Temperature: 72°F , 22°C
Dew Point: 61°F , 16°C
Humidity: 69%
Barometer: 29.89 inHg , 1012.2 hPa
Clouds: Clear
Visibility: 10 miles , 16 km
2017/09/19 16:55 KRGK 191655Z AUTO 12009KT 10SM CLR 22/16 A2989 RMK AO2